sensor_id;sensor_type;location;lat;lon;timestamp;pressure;altitude;pressure_sealevel;temperature;humidity
55217;BME280;41086;46.736;15.666;2024-01-10T00:02:03;99941.53;;;2.27;48.74
55217;BME280;41086;46.736;15.666;2024-01-10T00:04:30;99950.19;;;2.30;48.90
55217;BME280;41086;46.736;15.666;2024-01-10T00:06:57;99951.03;;;2.32;48.79
55217;BME280;41086;46.736;15.666;2024-01-10T00:09:23;99939.72;;;2.32;48.98
55217;BME280;41086;46.736;15.666;2024-01-10T00:11:50;99943.19;;;2.32;48.10
55217;BME280;41086;46.736;15.666;2024-01-10T00:14:17;99940.53;;;2.35;48.60
55217;BME280;41086;46.736;15.666;2024-01-10T00:16:44;99939.72;;;2.32;48.33
55217;BME280;41086;46.736;15.666;2024-01-10T00:19:11;99940.56;;;2.34;48.88
55217;BME280;41086;46.736;15.666;2024-01-10T00:21:37;99939.69;;;2.35;48.99
55217;BME280;41086;46.736;15.666;2024-01-10T00:24:04;99941.47;;;2.31;48.70
55217;BME280;41086;46.736;15.666;2024-01-10T00:26:31;99938.88;;;2.30;48.55
55217;BME280;41086;46.736;15.666;2024-01-10T00:28:58;99921.56;;;2.18;48.83
55217;BME280;41086;46.736;15.666;2024-01-10T00:31:30;99943.22;;;2.31;49.23
55217;BME280;41086;46.736;15.666;2024-01-10T00:33:57;99939.72;;;2.32;49.23
55217;BME280;41086;46.736;15.666;2024-01-10T00:36:24;99928.44;;;2.25;48.69
55217;BME280;41086;46.736;15.666;2024-01-10T00:38:51;99934.69;;;2.13;48.36
55217;BME280;41086;46.736;15.666;2024-01-10T00:41:18;99940.09;;;2.72;48.63
55217;BME280;41086;46.736;15.666;2024-01-10T00:43:44;99943.22;;;2.31;49.38
55217;BME280;41086;46.736;15.666;2024-01-10T00:46:11;99943.31;;;2.23;49.51
55217;BME280;41086;46.736;15.666;2024-01-10T00:48:38;99945.13;;;2.18;48.79
55217;BME280;41086;46.736;15.666;2024-01-10T00:51:05;99923.53;;;1.97;49.07
55217;BME280;41086;46.736;15.666;2024-01-10T00:53:35;99953.81;;;2.17;49.49
55217;BME280;41086;46.736;15.666;2024-01-10T00:56:02;99952.97;;;2.18;49.53
55217;BME280;41086;46.736;15.666;2024-01-10T00:58:29;99946.00;;;2.15;49.82
55217;BME280;41086;46.736;15.666;2024-01-10T01:00:56;99957.25;;;2.24;50.67
55217;BME280;41086;46.736;15.666;2024-01-10T01:03:23;99959.84;;;2.25;50.96
55217;BME280;41086;46.736;15.666;2024-01-10T01:05:50;99959.88;;;2.24;51.07
55217;BME280;41086;46.736;15.666;2024-01-10T01:08:17;99950.34;;;2.16;51.00
55217;BME280;41086;46.736;15.666;2024-01-10T01:10:44;99962.56;;;2.16;50.36
55217;BME280;41086;46.736;15.666;2024-01-10T01:13:10;99957.38;;;2.11;49.70
55217;BME280;41086;46.736;15.666;2024-01-10T01:15:37;99957.38;;;2.13;50.20
55217;BME280;41086;46.736;15.666;2024-01-10T01:18:04;99955.66;;;2.12;49.55
55217;BME280;41086;46.736;15.666;2024-01-10T01:20:31;99959.13;;;2.12;48.91
55217;BME280;41086;46.736;15.666;2024-01-10T01:22:58;99950.44;;;2.09;49.43
55217;BME280;41086;46.736;15.666;2024-01-10T01:25:25;99954.84;;;2.05;49.79
55217;BME280;41086;46.736;15.666;2024-01-10T01:27:51;99955.72;;;2.03;50.21
55217;BME280;41086;46.736;15.666;2024-01-10T01:30:18;99947.88;;;2.03;50.44
55217;BME280;41086;46.736;15.666;2024-01-10T01:32:48;99956.63;;;2.00;50.07
55217;BME280;41086;46.736;15.666;2024-01-10T01:35:14;99949.75;;;1.93;50.11
55217;BME280;41086;46.736;15.666;2024-01-10T01:37:42;99957.66;;;1.84;50.23
55217;BME280;41086;46.736;15.666;2024-01-10T01:40:09;99951.59;;;1.80;50.47
55217;BME280;41086;46.736;15.666;2024-01-10T01:42:36;99956.88;;;1.77;51.10
55217;BME280;41086;46.736;15.666;2024-01-10T01:45:03;99963.84;;;1.73;51.74
55217;BME280;41086;46.736;15.666;2024-01-10T01:47:30;99955.25;;;1.64;51.58
55217;BME280;41086;46.736;15.666;2024-01-10T01:49:57;99954.34;;;1.65;51.58
55217;BME280;41086;46.736;15.666;2024-01-10T01:52:24;99940.47;;;1.58;52.01
55217;BME280;41086;46.736;15.666;2024-01-10T01:54:51;99942.31;;;1.50;52.65
55217;BME280;41086;46.736;15.666;2024-01-10T01:57:18;99937.13;;;1.41;53.22
55217;BME280;41086;46.736;15.666;2024-01-10T01:59:45;99934.84;;;1.99;51.94
55217;BME280;41086;46.736;15.666;2024-01-10T02:02:12;99953.63;;;1.50;53.25
55217;BME280;41086;46.736;15.666;2024-01-10T02:04:42;99954.59;;;1.36;54.23
55217;BME280;41086;46.736;15.666;2024-01-10T02:07:09;99952.91;;;1.28;54.49
55217;BME280;41086;46.736;15.666;2024-01-10T02:09:35;99950.34;;;1.22;54.67
55217;BME280;41086;46.736;15.666;2024-01-10T02:12:03;99954.75;;;1.16;55.04
55217;BME280;41086;46.736;15.666;2024-01-10T02:14:30;99954.78;;;1.08;55.33
55217;BME280;41086;46.736;15.666;2024-01-10T02:16:57;99946.13;;;1.00;55.59
55217;BME280;41086;46.736;15.666;2024-01-10T02:19:24;99949.69;;;0.93;56.23
55217;BME280;41086;46.736;15.666;2024-01-10T02:21:50;99950.59;;;0.84;57.06
55217;BME280;41086;46.736;15.666;2024-01-10T02:24:17;99940.22;;;0.75;57.05
55217;BME280;41086;46.736;15.666;2024-01-10T02:26:44;99922.00;;;0.62;57.17
55217;BME280;41086;46.736;15.666;2024-01-10T02:29:11;99942.03;;;0.59;57.67
55217;BME280;41086;46.736;15.666;2024-01-10T02:31:38;99949.88;;;0.56;58.55
55217;BME280;41086;46.736;15.666;2024-01-10T02:34:05;99946.38;;;0.54;58.40
55217;BME280;41086;46.736;15.666;2024-01-10T02:36:32;99946.44;;;0.49;58.42
55217;BME280;41086;46.736;15.666;2024-01-10T02:38:58;99943.00;;;0.41;57.95
55217;BME280;41086;46.736;15.666;2024-01-10T02:41:25;99950.84;;;0.33;57.90
55217;BME280;41086;46.736;15.666;2024-01-10T02:43:54;99923.94;;;0.16;57.97
55217;BME280;41086;46.736;15.666;2024-01-10T02:46:25;99935.22;;;0.22;58.78
55217;BME280;41086;46.736;15.666;2024-01-10T02:48:54;99940.44;;;0.21;59.65
55217;BME280;41086;46.736;15.666;2024-01-10T02:51:26;99939.59;;;0.17;60.57
55217;BME280;41086;46.736;15.666;2024-01-10T02:53:53;99924.00;;;0.01;61.79
55217;BME280;41086;46.736;15.666;2024-01-10T02:56:20;99938.78;;;-0.05;63.16
55217;BME280;41086;46.736;15.666;2024-01-10T02:58:47;99935.31;;;-0.10;63.48
55217;BME280;41086;46.736;15.666;2024-01-10T03:01:14;99931.88;;;-0.13;64.03
55217;BME280;41086;46.736;15.666;2024-01-10T03:03:41;99916.22;;;-0.23;64.19
55217;BME280;41086;46.736;15.666;2024-01-10T03:06:08;99925.78;;;-0.18;63.29
55217;BME280;41086;46.736;15.666;2024-01-10T03:08:35;99923.19;;;-0.25;62.41
55217;BME280;41086;46.736;15.666;2024-01-10T03:11:02;99915.38;;;-0.35;62.33
55217;BME280;41086;46.736;15.666;2024-01-10T03:13:29;99913.66;;;-0.41;62.41
55217;BME280;41086;46.736;15.666;2024-01-10T03:15:56;99916.28;;;-0.46;62.82
55217;BME280;41086;46.736;15.666;2024-01-10T03:18:23;99919.75;;;-0.53;61.62
55217;BME280;41086;46.736;15.666;2024-01-10T03:20:50;99907.63;;;-0.68;63.07
55217;BME280;41086;46.736;15.666;2024-01-10T03:23:17;99929.31;;;-0.56;63.45
55217;BME280;41086;46.736;15.666;2024-01-10T03:25:44;99928.44;;;-0.55;63.28
55217;BME280;41086;46.736;15.666;2024-01-10T03:28:15;99920.63;;;-0.57;63.48
55217;BME280;41086;46.736;15.666;2024-01-10T03:30:42;99915.41;;;-0.55;63.78
55217;BME280;41086;46.736;15.666;2024-01-10T03:33:09;99922.38;;;-0.54;63.86
55217;BME280;41086;46.736;15.666;2024-01-10T03:35:36;99913.66;;;-0.58;63.95
55217;BME280;41086;46.736;15.666;2024-01-10T03:38:02;99920.59;;;-0.60;64.68
55217;BME280;41086;46.736;15.666;2024-01-10T03:40:30;99920.63;;;-0.61;65.65
55217;BME280;41086;46.736;15.666;2024-01-10T03:42:57;99917.16;;;-0.60;66.32
55217;BME280;41086;46.736;15.666;2024-01-10T03:45:24;99915.44;;;-0.64;65.22
55217;BME280;41086;46.736;15.666;2024-01-10T03:47:51;99914.56;;;-0.67;65.20
55217;BME280;41086;46.736;15.666;2024-01-10T03:50:18;99916.31;;;-0.73;66.42
55217;BME280;41086;46.736;15.666;2024-01-10T03:52:46;99914.56;;;-0.70;67.14
55217;BME280;41086;46.736;15.666;2024-01-10T03:55:13;99912.81;;;-0.71;66.52
55217;BME280;41086;46.736;15.666;2024-01-10T03:57:42;99912.81;;;-0.72;66.59
55217;BME280;41086;46.736;15.666;2024-01-10T04:00:09;99915.41;;;-0.77;66.52
55217;BME280;41086;46.736;15.666;2024-01-10T04:02:39;99903.28;;;-0.84;67.35
55217;BME280;41086;46.736;15.666;2024-01-10T04:05:07;99910.22;;;-0.78;68.44
55217;BME280;41086;46.736;15.666;2024-01-10T04:07:36;99918.03;;;-0.80;68.54
55217;BME280;41086;46.736;15.666;2024-01-10T04:10:03;99911.94;;;-0.83;68.38
55217;BME280;41086;46.736;15.666;2024-01-10T04:12:30;99912.81;;;-0.94;71.66
55217;BME280;41086;46.736;15.666;2024-01-10T04:14:56;99911.94;;;-1.05;73.92
55217;BME280;41086;46.736;15.666;2024-01-10T04:17:23;99909.34;;;-1.11;74.85
55217;BME280;41086;46.736;15.666;2024-01-10T04:19:50;99913.66;;;-1.15;75.07
55217;BME280;41086;46.736;15.666;2024-01-10T04:22:17;99912.78;;;-1.27;76.19
55217;BME280;41086;46.736;15.666;2024-01-10T04:24:44;99912.78;;;-1.12;76.95
55217;BME280;41086;46.736;15.666;2024-01-10T04:27:10;99917.97;;;-1.12;76.57
55217;BME280;41086;46.736;15.666;2024-01-10T04:29:37;99920.59;;;-1.17;76.48
55217;BME280;41086;46.736;15.666;2024-01-10T04:32:04;99923.16;;;-1.30;78.64
55217;BME280;41086;46.736;15.666;2024-01-10T04:34:31;99919.66;;;-1.46;76.88
55217;BME280;41086;46.736;15.666;2024-01-10T04:36:58;99928.22;;;-1.72;80.19
55217;BME280;41086;46.736;15.666;2024-01-10T04:39:25;99924.78;;;-1.71;80.58
55217;BME280;41086;46.736;15.666;2024-01-10T04:41:52;99921.34;;;-1.53;80.49
55217;BME280;41086;46.736;15.666;2024-01-10T04:44:18;99924.00;;;-1.42;78.00
55217;BME280;41086;46.736;15.666;2024-01-10T04:46:45;99924.88;;;-1.43;76.82
55217;BME280;41086;46.736;15.666;2024-01-10T04:49:12;99919.63;;;-1.56;76.49
55217;BME280;41086;46.736;15.666;2024-01-10T04:51:39;99911.78;;;-1.63;75.99
55217;BME280;41086;46.736;15.666;2024-01-10T04:54:06;99928.25;;;-1.61;75.64
55217;BME280;41086;46.736;15.666;2024-01-10T04:56:32;99919.56;;;-1.72;76.01
55217;BME280;41086;46.736;15.666;2024-01-10T04:58:59;99928.22;;;-1.75;77.85
55217;BME280;41086;46.736;15.666;2024-01-10T05:01:27;99923.91;;;-1.70;78.63
55217;BME280;41086;46.736;15.666;2024-01-10T05:03:54;99930.00;;;-1.56;76.28
55217;BME280;41086;46.736;15.666;2024-01-10T05:06:21;99931.78;;;-1.54;75.35
55217;BME280;41086;46.736;15.666;2024-01-10T05:08:48;99926.56;;;-1.54;75.36
55217;BME280;41086;46.736;15.666;2024-01-10T05:11:15;99933.47;;;-1.55;75.32
55217;BME280;41086;46.736;15.666;2024-01-10T05:13:43;99936.06;;;-1.55;74.85
55217;BME280;41086;46.736;15.666;2024-01-10T05:16:10;99938.69;;;-1.60;74.69
55217;BME280;41086;46.736;15.666;2024-01-10T05:18:37;99940.44;;;-1.57;75.15
55217;BME280;41086;46.736;15.666;2024-01-10T05:21:03;99942.13;;;-1.61;75.92
55217;BME280;41086;46.736;15.666;2024-01-10T05:23:30;99940.41;;;-1.59;76.37
55217;BME280;41086;46.736;15.666;2024-01-10T05:25:57;99946.47;;;-1.58;75.82
55217;BME280;41086;46.736;15.666;2024-01-10T05:28:24;99943.88;;;-1.58;75.55
55217;BME280;41086;46.736;15.666;2024-01-10T05:30:51;99941.19;;;-1.76;75.48
55217;BME280;41086;46.736;15.666;2024-01-10T05:33:18;99945.47;;;-1.95;77.21
55217;BME280;41086;46.736;15.666;2024-01-10T05:35:47;99947.22;;;-1.87;78.66
55217;BME280;41086;46.736;15.666;2024-01-10T05:38:14;99942.94;;;-1.82;78.51
55217;BME280;41086;46.736;15.666;2024-01-10T05:40:40;99949.84;;;-1.81;80.32
55217;BME280;41086;46.736;15.666;2024-01-10T05:43:08;99942.94;;;-1.82;80.70
55217;BME280;41086;46.736;15.666;2024-01-10T05:45:37;99952.47;;;-1.77;79.64
55217;BME280;41086;46.736;15.666;2024-01-10T05:48:04;99947.22;;;-1.82;75.28
55217;BME280;41086;46.736;15.666;2024-01-10T05:50:31;99945.44;;;-1.97;76.34
55217;BME280;41086;46.736;15.666;2024-01-10T05:52:58;99959.31;;;-1.92;77.14
55217;BME280;41086;46.736;15.666;2024-01-10T05:55:24;99963.66;;;-1.91;76.95
55217;BME280;41086;46.736;15.666;2024-01-10T05:57:51;99961.91;;;-1.95;76.79
55217;BME280;41086;46.736;15.666;2024-01-10T06:00:18;99963.63;;;-1.97;76.85
55217;BME280;41086;46.736;15.666;2024-01-10T06:02:47;99972.28;;;-1.96;76.85
55217;BME280;41086;46.736;15.666;2024-01-10T06:05:14;99971.41;;;-1.97;76.79
55217;BME280;41086;46.736;15.666;2024-01-10T06:07:41;99971.41;;;-1.97;76.39
55217;BME280;41086;46.736;15.666;2024-01-10T06:10:09;99954.91;;;-2.07;76.20
55217;BME280;41086;46.736;15.666;2024-01-10T06:12:36;99974.00;;;-2.03;76.01
55217;BME280;41086;46.736;15.666;2024-01-10T06:15:05;99975.69;;;-2.05;77.26
55217;BME280;41086;46.736;15.666;2024-01-10T06:17:33;99973.94;;;-2.08;77.14
55217;BME280;41086;46.736;15.666;2024-01-10T06:20:00;99973.09;;;-2.08;77.19
55217;BME280;41086;46.736;15.666;2024-01-10T06:22:27;99960.91;;;-2.18;76.88
55217;BME280;41086;46.736;15.666;2024-01-10T06:24:56;99980.88;;;-2.11;77.76
55217;BME280;41086;46.736;15.666;2024-01-10T06:27:23;99980.03;;;-2.09;78.47
55217;BME280;41086;46.736;15.666;2024-01-10T06:29:50;99978.28;;;-2.11;78.70
55217;BME280;41086;46.736;15.666;2024-01-10T06:32:16;99973.84;;;-2.20;79.63
55217;BME280;41086;46.736;15.666;2024-01-10T06:34:43;99981.72;;;-2.11;79.86
55217;BME280;41086;46.736;15.666;2024-01-10T06:37:10;99995.59;;;-2.09;79.60
55217;BME280;41086;46.736;15.666;2024-01-10T06:39:37;99980.81;;;-2.16;78.83
55217;BME280;41086;46.736;15.666;2024-01-10T06:42:04;99997.31;;;-2.11;78.80
55217;BME280;41086;46.736;15.666;2024-01-10T06:44:32;99997.28;;;-2.15;78.88
55217;BME280;41086;46.736;15.666;2024-01-10T06:47:00;100004.19;;;-2.17;80.23
55217;BME280;41086;46.736;15.666;2024-01-10T06:49:27;100006.81;;;-2.16;80.47
55217;BME280;41086;46.736;15.666;2024-01-10T06:51:54;100017.25;;;-2.11;80.71
55217;BME280;41086;46.736;15.666;2024-01-10T06:54:21;100008.59;;;-2.07;80.22
55217;BME280;41086;46.736;15.666;2024-01-10T06:56:47;100023.34;;;-2.06;80.02
55217;BME280;41086;46.736;15.666;2024-01-10T06:59:15;100003.34;;;-2.12;80.34
55217;BME280;41086;46.736;15.666;2024-01-10T07:01:42;100013.75;;;-2.12;80.58
55217;BME280;41086;46.736;15.666;2024-01-10T07:04:09;100015.31;;;-2.34;81.17
55217;BME280;41086;46.736;15.666;2024-01-10T07:06:36;100018.72;;;-2.44;83.43
55217;BME280;41086;46.736;15.666;2024-01-10T07:09:02;100014.44;;;-2.37;83.85
55217;BME280;41086;46.736;15.666;2024-01-10T07:11:31;100016.88;;;-2.53;85.20
55217;BME280;41086;46.736;15.666;2024-01-10T07:13:58;100018.81;;;-2.30;87.18
55217;BME280;41086;46.736;15.666;2024-01-10T07:16:26;100013.72;;;-2.18;84.63
55217;BME280;41086;46.736;15.666;2024-01-10T07:18:52;100019.88;;;-2.02;85.32
55217;BME280;41086;46.736;15.666;2024-01-10T07:21:19;100014.81;;;-1.84;84.81
55217;BME280;41086;46.736;15.666;2024-01-10T07:23:47;99996.69;;;-1.67;85.66
55217;BME280;41086;46.736;15.666;2024-01-10T07:26:16;100014.19;;;-1.35;84.18
55217;BME280;41086;46.736;15.666;2024-01-10T07:28:43;100014.22;;;-1.26;84.14
55217;BME280;41086;46.736;15.666;2024-01-10T07:31:11;100019.50;;;-1.01;84.17
55217;BME280;41086;46.736;15.666;2024-01-10T07:33:38;100020.41;;;-0.81;85.16
55217;BME280;41086;46.736;15.666;2024-01-10T07:36:05;100032.59;;;-0.60;85.38
55217;BME280;41086;46.736;15.666;2024-01-10T07:38:32;100036.97;;;-0.40;83.62
55217;BME280;41086;46.736;15.666;2024-01-10T07:40:59;100030.03;;;-0.29;82.05
55217;BME280;41086;46.736;15.666;2024-01-10T07:43:26;100024.78;;;-0.17;78.48
55217;BME280;41086;46.736;15.666;2024-01-10T07:45:53;100037.81;;;-0.45;76.41
55217;BME280;41086;46.736;15.666;2024-01-10T07:48:20;100033.50;;;-0.38;80.00
55217;BME280;41086;46.736;15.666;2024-01-10T07:50:47;100034.34;;;-0.14;80.48
55217;BME280;41086;46.736;15.666;2024-01-10T07:53:14;100034.34;;;0.09;81.06
55217;BME280;41086;46.736;15.666;2024-01-10T07:55:41;100017.78;;;0.27;82.48
55217;BME280;41086;46.736;15.666;2024-01-10T07:58:07;100035.09;;;0.55;77.90
55217;BME280;41086;46.736;15.666;2024-01-10T08:00:35;100030.59;;;0.93;79.02
55217;BME280;41086;46.736;15.666;2024-01-10T08:03:02;100028.69;;;1.21;76.61
55217;BME280;41086;46.736;15.666;2024-01-10T08:05:29;100033.72;;;1.51;74.84
55217;BME280;41086;46.736;15.666;2024-01-10T08:07:56;100034.31;;;1.90;73.86
55217;BME280;41086;46.736;15.666;2024-01-10T08:10:24;100029.75;;;2.11;68.67
55217;BME280;41086;46.736;15.666;2024-01-10T08:12:53;100038.56;;;2.04;68.19
55217;BME280;41086;46.736;15.666;2024-01-10T08:15:20;100033.09;;;2.28;64.00
55217;BME280;41086;46.736;15.666;2024-01-10T08:17:47;100032.00;;;2.48;63.31
55217;BME280;41086;46.736;15.666;2024-01-10T08:20:14;100031.69;;;2.75;62.21
55217;BME280;41086;46.736;15.666;2024-01-10T08:22:46;100029.56;;;3.05;60.85
55217;BME280;41086;46.736;15.666;2024-01-10T08:25:13;100035.16;;;3.42;59.16
55217;BME280;41086;46.736;15.666;2024-01-10T08:27:42;100039.88;;;3.74;58.15
55217;BME280;41086;46.736;15.666;2024-01-10T08:30:11;100031.69;;;3.94;55.64
55217;BME280;41086;46.736;15.666;2024-01-10T08:32:38;100040.25;;;4.06;55.74
55217;BME280;41086;46.736;15.666;2024-01-10T08:35:05;100043.72;;;4.08;54.89
55217;BME280;41086;46.736;15.666;2024-01-10T08:37:35;100041.78;;;4.17;53.33
55217;BME280;41086;46.736;15.666;2024-01-10T08:40:02;100036.34;;;4.28;53.29
55217;BME280;41086;46.736;15.666;2024-01-10T08:42:34;100048.84;;;4.15;51.91
55217;BME280;41086;46.736;15.666;2024-01-10T08:45:01;100046.91;;;4.25;52.59
55217;BME280;41086;46.736;15.666;2024-01-10T08:47:28;100047.03;;;4.17;52.74
55217;BME280;41086;46.736;15.666;2024-01-10T08:49:58;100038.19;;;4.23;52.80
55217;BME280;41086;46.736;15.666;2024-01-10T08:52:25;100048.28;;;3.39;53.04
55217;BME280;41086;46.736;15.666;2024-01-10T08:54:52;100054.56;;;3.27;52.26
55217;BME280;41086;46.736;15.666;2024-01-10T08:57:19;100052.31;;;2.98;53.75
55217;BME280;41086;46.736;15.666;2024-01-10T08:59:46;100041.75;;;3.07;54.24
55217;BME280;41086;46.736;15.666;2024-01-10T09:02:13;100052.19;;;3.10;53.50
55217;BME280;41086;46.736;15.666;2024-01-10T09:04:40;100046.31;;;2.92;55.17
55217;BME280;41086;46.736;15.666;2024-01-10T09:07:07;100046.69;;;2.61;55.32
55217;BME280;41086;46.736;15.666;2024-01-10T09:09:36;100041.75;;;3.06;53.46
55217;BME280;41086;46.736;15.666;2024-01-10T09:12:02;100047.53;;;2.60;54.15
55217;BME280;41086;46.736;15.666;2024-01-10T09:14:29;100049.59;;;2.32;54.85
55217;BME280;41086;46.736;15.666;2024-01-10T09:16:56;100044.88;;;2.66;53.60
55217;BME280;41086;46.736;15.666;2024-01-10T09:19:25;100048.44;;;2.57;53.01
55217;BME280;41086;46.736;15.666;2024-01-10T09:21:52;100049.97;;;2.78;54.24
55217;BME280;41086;46.736;15.666;2024-01-10T09:24:18;100041.72;;;3.09;55.29
55217;BME280;41086;46.736;15.666;2024-01-10T09:26:55;100046.50;;;3.41;55.64
55217;BME280;41086;46.736;15.666;2024-01-10T09:29:24;100039.81;;;3.79;54.76
55217;BME280;41086;46.736;15.666;2024-01-10T09:31:52;100040.91;;;4.18;54.67
55217;BME280;41086;46.736;15.666;2024-01-10T09:34:19;100040.41;;;4.46;52.99
55217;BME280;41086;46.736;15.666;2024-01-10T09:36:47;100048.66;;;4.73;52.49
55217;BME280;41086;46.736;15.666;2024-01-10T09:39:14;100046.94;;;4.70;52.09
55217;BME280;41086;46.736;15.666;2024-01-10T09:41:46;100043.22;;;4.80;52.40
55217;BME280;41086;46.736;15.666;2024-01-10T09:44:15;100048.84;;;5.05;51.96
55217;BME280;41086;46.736;15.666;2024-01-10T09:46:50;100040.97;;;5.04;50.39
55217;BME280;41086;46.736;15.666;2024-01-10T09:49:18;100049.50;;;5.15;50.80
55217;BME280;41086;46.736;15.666;2024-01-10T09:51:49;100037.66;;;5.36;50.47
55217;BME280;41086;46.736;15.666;2024-01-10T09:54:16;100047.06;;;5.46;49.42
55217;BME280;41086;46.736;15.666;2024-01-10T09:56:47;100046.75;;;5.60;49.41
55217;BME280;41086;46.736;15.666;2024-01-10T09:59:13;100043.00;;;5.70;49.40
55217;BME280;41086;46.736;15.666;2024-01-10T10:01:40;100039.47;;;5.71;49.53
55217;BME280;41086;46.736;15.666;2024-01-10T10:04:09;100040.56;;;5.61;47.55
55217;BME280;41086;46.736;15.666;2024-01-10T10:06:38;100034.91;;;5.78;48.38
55217;BME280;41086;46.736;15.666;2024-01-10T10:09:07;100035.75;;;5.80;48.53
55217;BME280;41086;46.736;15.666;2024-01-10T10:11:35;100026.50;;;6.01;48.88
55217;BME280;41086;46.736;15.666;2024-01-10T10:14:15;100026.63;;;6.29;47.35
55217;BME280;41086;46.736;15.666;2024-01-10T10:16:43;100024.69;;;6.69;46.75
55217;BME280;41086;46.736;15.666;2024-01-10T10:19:10;100023.47;;;6.80;46.22
55217;BME280;41086;46.736;15.666;2024-01-10T10:21:47;100021.47;;;6.88;46.29
55217;BME280;41086;46.736;15.666;2024-01-10T10:24:13;100010.19;;;6.83;45.71
55217;BME280;41086;46.736;15.666;2024-01-10T10:26:45;100006.56;;;6.58;45.45
55217;BME280;41086;46.736;15.666;2024-01-10T10:29:12;100000.09;;;6.04;43.38
55217;BME280;41086;46.736;15.666;2024-01-10T10:31:39;100007.81;;;5.37;45.84
55217;BME280;41086;46.736;15.666;2024-01-10T10:34:06;99991.19;;;4.09;49.77
55217;BME280;41086;46.736;15.666;2024-01-10T10:36:33;100003.81;;;4.37;51.71
55217;BME280;41086;46.736;15.666;2024-01-10T10:39:00;100002.31;;;5.10;50.55
55217;BME280;41086;46.736;15.666;2024-01-10T10:41:31;100006.22;;;5.69;47.38
55217;BME280;41086;46.736;15.666;2024-01-10T10:44:00;99992.91;;;6.11;47.08
55217;BME280;41086;46.736;15.666;2024-01-10T10:46:30;99992.91;;;6.43;46.26
55217;BME280;41086;46.736;15.666;2024-01-10T10:48:59;99993.59;;;6.81;46.19
55217;BME280;41086;46.736;15.666;2024-01-10T10:51:36;99992.59;;;7.14;44.74
55217;BME280;41086;46.736;15.666;2024-01-10T10:54:04;99993.81;;;7.31;45.05
55217;BME280;41086;46.736;15.666;2024-01-10T10:56:33;99990.00;;;7.42;44.50
55217;BME280;41086;46.736;15.666;2024-01-10T10:59:03;99979.22;;;7.49;43.85
55217;BME280;41086;46.736;15.666;2024-01-10T11:01:32;99980.13;;;6.91;41.47
55217;BME280;41086;46.736;15.666;2024-01-10T11:04:00;99984.13;;;6.74;44.21
55217;BME280;41086;46.736;15.666;2024-01-10T11:06:27;99976.75;;;6.25;43.14
55217;BME280;41086;46.736;15.666;2024-01-10T11:09:00;99970.44;;;5.97;45.76
55217;BME280;41086;46.736;15.666;2024-01-10T11:11:39;99969.25;;;6.42;45.56
55217;BME280;41086;46.736;15.666;2024-01-10T11:25:17;99953.63;;;7.51;43.44
55217;BME280;41086;46.736;15.666;2024-01-10T11:27:46;99949.19;;;7.78;41.04
55217;BME280;41086;46.736;15.666;2024-01-10T11:30:49;99949.03;;;8.10;41.62
55217;BME280;41086;46.736;15.666;2024-01-10T11:36:05;99950.25;;;8.73;39.44
55217;BME280;41086;46.736;15.666;2024-01-10T11:38:32;99947.31;;;8.57;38.60
55217;BME280;41086;46.736;15.666;2024-01-10T11:41:00;99941.63;;;8.68;39.00
55217;BME280;41086;46.736;15.666;2024-01-10T11:43:27;99944.94;;;8.75;38.88
55217;BME280;41086;46.736;15.666;2024-01-10T11:45:57;99938.81;;;8.49;38.74
55217;BME280;41086;46.736;15.666;2024-01-10T11:48:27;99933.28;;;8.32;39.22
55217;BME280;41086;46.736;15.666;2024-01-10T11:50:57;99918.03;;;6.52;39.23
55217;BME280;41086;46.736;15.666;2024-01-10T11:53:44;99919.84;;;6.50;41.50
55217;BME280;41086;46.736;15.666;2024-01-10T11:56:14;99910.44;;;6.71;41.46
55217;BME280;41086;46.736;15.666;2024-01-10T11:59:02;99920.38;;;7.19;40.43
55217;BME280;41086;46.736;15.666;2024-01-10T12:01:36;99924.41;;;7.31;41.82
55217;BME280;41086;46.736;15.666;2024-01-10T12:04:04;99916.59;;;7.28;39.17
55217;BME280;41086;46.736;15.666;2024-01-10T12:06:44;99904.28;;;7.00;39.26
55217;BME280;41086;46.736;15.666;2024-01-10T12:09:12;99906.13;;;6.97;39.75
55217;BME280;41086;46.736;15.666;2024-01-10T12:11:40;99905.66;;;7.12;37.47
55217;BME280;41086;46.736;15.666;2024-01-10T12:14:09;99902.03;;;6.88;39.53
55217;BME280;41086;46.736;15.666;2024-01-10T12:16:36;99901.06;;;7.45;39.94
55217;BME280;41086;46.736;15.666;2024-01-10T12:19:03;99904.00;;;8.13;38.83
55217;BME280;41086;46.736;15.666;2024-01-10T12:21:30;99900.13;;;7.73;39.19
55217;BME280;41086;46.736;15.666;2024-01-10T12:23:57;99901.25;;;8.64;37.42
55217;BME280;41086;46.736;15.666;2024-01-10T12:26:24;99901.38;;;8.61;36.83
55217;BME280;41086;46.736;15.666;2024-01-10T12:28:58;99899.34;;;8.92;36.62
55217;BME280;41086;46.736;15.666;2024-01-10T12:31:29;99895.16;;;9.30;36.57
55217;BME280;41086;46.736;15.666;2024-01-10T12:33:59;99896.63;;;9.58;35.85
55217;BME280;41086;46.736;15.666;2024-01-10T12:36:26;99894.34;;;9.70;35.82
55217;BME280;41086;46.736;15.666;2024-01-10T12:38:53;99885.16;;;9.79;36.18
55217;BME280;41086;46.736;15.666;2024-01-10T12:41:20;99877.69;;;9.89;35.79
55217;BME280;41086;46.736;15.666;2024-01-10T12:43:54;99890.31;;;9.82;35.15
55217;BME280;41086;46.736;15.666;2024-01-10T12:46:22;99882.25;;;9.85;36.53
55217;BME280;41086;46.736;15.666;2024-01-10T12:49:03;99879.59;;;9.85;35.88
55217;BME280;41086;46.736;15.666;2024-01-10T12:51:32;99875.63;;;9.75;35.63
55217;BME280;41086;46.736;15.666;2024-01-10T12:54:00;99868.78;;;9.90;36.48
55217;BME280;41086;46.736;15.666;2024-01-10T12:56:27;99874.94;;;9.90;34.84
55217;BME280;41086;46.736;15.666;2024-01-10T12:58:55;99875.94;;;9.25;36.76
55217;BME280;41086;46.736;15.666;2024-01-10T13:01:23;99864.28;;;9.71;36.95
55217;BME280;41086;46.736;15.666;2024-01-10T13:03:51;99864.94;;;9.76;36.29
55217;BME280;41086;46.736;15.666;2024-01-10T13:06:18;99865.78;;;9.58;35.11
55217;BME280;41086;46.736;15.666;2024-01-10T13:08:46;99859.28;;;9.86;36.30
55217;BME280;41086;46.736;15.666;2024-01-10T13:11:13;99859.13;;;9.89;35.93